KJAN/JAN METAR and TAF weather

Enter ICAO airport designator
Station Type Date Time Source
KJAN METAR 2019/02/16 07:54 UTC NOAA

KJAN 160754Z AUTO 34009G16KT 5SM BR OVC004 12/11 A2979 RMK AO2 RAB03E18B27E45 SLP083 P0000 T01220111


Station Type Date Time Source
KJAN Decoded METAR 2019/02/16 07:54 UTC NOAA

Jackson, Jackson International Airport, MS, United States (KJAN) 32-19-11N 090-04-39W 89M
Feb 16, 2019 - 02:54 AM EST / 2019.02.16 0754 UTC
Wind: from the NNW (340 degrees) at 10 MPH (9 KT) gusting to 18 MPH (16 KT):0
Visibility: 5 mile(s):0
Sky conditions: overcast
Weather: mist
Precipitation last hour: A trace
Temperature: 54.0 F (12.2 C)
Dew Point: 52.0 F (11.1 C)
Relative Humidity: 92%
Pressure (altimeter): 29.79 in. Hg (1008 hPa)
ob: KJAN 160754Z AUTO 34009G16KT 5SM BR OVC004 12/11 A2979 RMK AO2 RAB03E18B27E45 SLP083 P0000 T01220111
cycle: 8

Station Type Date Time Source
KJAN TAF 2019/02/16 07:36 UTC NOAA

TAF
AMD KJAN 160633Z 1607/1706 19010KT P6SM VCSH SCT015 OVC060
FM160705 27010KT 4SM RA BR BKN008 OVC015
FM160800 32011KT P6SM OVC007
FM161400 01008KT P6SM BKN015 OVC025
FM170100 09005KT P6SM OVC015


Example: see airport list